Terminal Aerodrome Forecast
Issued by NWS

Home | Current Version | Previous Version | Text Only | Print | Product List | Glossary On
Versions: 1 2 3 4 5 6 7 8 9 10 11 12 13 14 15 16 17 18 19 20 21
000
FTUS42 KILM 300520
TAFCRE
TAF
KCRE 300520Z 3006/3106 04002KT P6SM SCT030 BKN250
      TEMPO 3008/3012 00000KT 3SM BR BKN030 BKN200
     FM301300 06005KT P6SM SCT035 BKN150
     FM301800 10008KT P6SM VCSH SCT025 BKN120
     FM310000 12004KT P6SM VCSH SCT020 OVC070=

USA.gov is the U.S. government's official web portal to all federal, state and local government web resources and services.